createdAt,value
2023-04-24T00:00:06.882Z,10.69
2023-04-24T00:04:12.183Z,10.69
2023-04-24T00:08:15.289Z,10.65
2023-04-24T00:12:18.031Z,10.70
2023-04-24T00:16:21.072Z,10.73
2023-04-24T00:20:25.290Z,10.77
2023-04-24T00:24:28.805Z,10.77
2023-04-24T00:28:31.854Z,10.77
2023-04-24T00:32:35.094Z,10.77
2023-04-24T00:36:39.401Z,10.73
2023-04-24T00:40:43.564Z,10.74
2023-04-24T00:44:46.690Z,10.77
2023-04-24T00:48:49.553Z,10.72
2023-04-24T00:52:53.798Z,10.75
2023-04-24T00:56:57.901Z,10.75
2023-04-24T01:01:02.114Z,10.69
2023-04-24T01:05:06.116Z,10.73
2023-04-24T01:09:12.550Z,10.70
2023-04-24T01:13:16.015Z,10.68
2023-04-24T01:17:21.424Z,10.73
2023-04-24T01:21:28.841Z,10.67
2023-04-24T01:25:40.254Z,10.68
2023-04-24T01:29:45.245Z,10.66
2023-04-24T01:33:48.729Z,10.70
2023-04-24T01:37:52.552Z,10.72
2023-04-24T01:41:56.935Z,10.71
2023-04-24T01:45:59.738Z,10.71
2023-04-24T01:50:03.526Z,10.66
2023-04-24T01:54:06.787Z,10.69
2023-04-24T01:58:11.437Z,10.77
2023-04-24T02:02:14.297Z,10.74
2023-04-24T02:06:17.136Z,10.71
2023-04-24T02:10:20.119Z,10.71
2023-04-24T02:14:24.174Z,10.68
2023-04-24T02:18:26.907Z,10.69
2023-04-24T02:22:43.858Z,10.68
2023-04-24T02:27:18.891Z,10.69
2023-04-24T02:31:22.956Z,10.64
2023-04-24T02:35:25.643Z,10.58
2023-04-24T02:39:28.411Z,10.53
2023-04-24T02:43:31.432Z,10.46
2023-04-24T02:47:35.801Z,10.50
2023-04-24T02:51:41.651Z,10.46
2023-04-24T02:55:44.633Z,10.41
2023-04-24T02:59:47.294Z,10.41
2023-04-24T03:03:51.520Z,10.35
2023-04-24T03:07:54.956Z,10.37
2023-04-24T03:11:59.304Z,10.31
2023-04-24T03:16:02.477Z,10.20
2023-04-24T03:20:09.052Z,10.17
2023-04-24T03:24:13.742Z,10.16
2023-04-24T03:28:16.549Z,10.12
2023-04-24T03:32:44.136Z,10.07
2023-04-24T03:36:51.764Z,10.11
2023-04-24T03:40:54.606Z,10.10
2023-04-24T03:45:14.872Z,10.08
2023-04-24T03:49:21.855Z,10.07
2023-04-24T03:53:27.620Z,10.03
2023-04-24T03:57:31.854Z,10.05
2023-04-24T04:01:46.937Z,10.06
2023-04-24T04:05:52.146Z,10.04
2023-04-24T04:09:56.474Z,10.02
2023-04-24T04:14:00.190Z,10.00
2023-04-24T04:18:03.954Z,10.01
2023-04-24T04:22:09.010Z,9.97
2023-04-24T04:26:26.434Z,9.96
2023-04-24T04:30:54.617Z,9.92
2023-04-24T04:35:04.438Z,9.92
2023-04-24T04:39:09.898Z,9.86
2023-04-24T04:43:39.162Z,9.83
2023-04-24T04:47:56.680Z,9.81
2023-04-24T04:52:15.386Z,9.81
2023-04-24T04:56:32.941Z,9.79
2023-04-24T05:00:59.461Z,9.81
2023-04-24T05:05:07.748Z,9.83
2023-04-24T05:09:11.372Z,9.89
2023-04-24T05:13:39.138Z,9.88
2023-04-24T05:17:57.991Z,9.92
2023-04-24T05:22:07.510Z,9.93
2023-04-24T05:26:16.478Z,9.85
2023-04-24T05:30:19.273Z,9.88
2023-04-24T05:34:23.543Z,9.83
2023-04-24T05:38:30.655Z,9.79
2023-04-24T05:42:33.581Z,9.84
2023-04-24T05:46:36.419Z,9.83
2023-04-24T05:50:40.966Z,9.85
2023-04-24T05:54:43.846Z,9.84
2023-04-24T05:58:49.628Z,9.84
2023-04-24T06:02:53.832Z,9.93
2023-04-24T06:06:59.367Z,9.99
2023-04-24T06:11:04.414Z,10.04
2023-04-24T06:15:12.630Z,10.13
2023-04-24T06:19:32.913Z,10.11
2023-04-24T06:23:53.554Z,10.20
2023-04-24T06:28:15.296Z,10.20
2023-04-24T06:32:18.179Z,10.34
2023-04-24T06:36:20.963Z,10.32
2023-04-24T06:40:25.523Z,10.35
2023-04-24T06:44:28.231Z,10.42
2023-04-24T06:48:31.305Z,10.33
2023-04-24T06:52:33.976Z,10.35
2023-04-24T06:56:38.571Z,10.42
2023-04-24T07:00:41.313Z,10.46
2023-04-24T07:04:44.197Z,10.50
2023-04-24T07:08:47.476Z,10.47
2023-04-24T07:12:51.659Z,10.43
2023-04-24T07:16:54.716Z,10.43
2023-04-24T07:21:03.342Z,10.36
2023-04-24T07:25:07.059Z,10.37
2023-04-24T07:29:11.202Z,10.37
2023-04-24T07:33:14.787Z,10.26
2023-04-24T07:37:17.640Z,10.19
2023-04-24T07:41:21.708Z,10.12
2023-04-24T07:45:27.205Z,9.96
2023-04-24T07:50:01.531Z,9.84
2023-04-24T07:54:04.285Z,9.81
2023-04-24T07:58:25.770Z,9.78
2023-04-24T08:02:30.325Z,9.76
2023-04-24T08:06:33.839Z,9.73
2023-04-24T08:10:36.586Z,9.71
2023-04-24T08:14:39.343Z,9.72
2023-04-24T08:18:43.498Z,9.70
2023-04-24T08:22:48.160Z,9.64
2023-04-24T08:26:52.501Z,9.61
2023-04-24T08:30:56.644Z,9.61
2023-04-24T08:35:01.382Z,9.65
2023-04-24T08:39:04.242Z,9.72
2023-04-24T08:43:07.276Z,9.74
2023-04-24T08:47:10.581Z,9.85
2023-04-24T08:51:14.637Z,9.90
2023-04-24T08:55:19.095Z,9.93
2023-04-24T08:59:23.517Z,9.97
2023-04-24T09:03:29.807Z,10.02
2023-04-24T09:07:37.519Z,10.05
2023-04-24T09:11:40.879Z,10.07
2023-04-24T09:15:43.628Z,10.13
2023-04-24T09:19:46.393Z,10.13
2023-04-24T09:23:59.869Z,10.15
2023-04-24T09:28:04.642Z,10.15
2023-04-24T09:32:22.563Z,10.20
2023-04-24T09:36:35.070Z,10.26
2023-04-24T09:40:41.108Z,10.15
2023-04-24T09:44:45.472Z,10.01
2023-04-24T09:48:48.206Z,9.82
2023-04-24T09:52:59.264Z,9.59
2023-04-24T09:57:03.570Z,9.61
2023-04-24T10:01:07.126Z,9.57
2023-04-24T10:05:13.303Z,9.45
2023-04-24T10:09:16.149Z,9.39
2023-04-24T10:13:20.824Z,9.39
2023-04-24T10:17:24.804Z,9.39
2023-04-24T10:21:28.398Z,9.47
2023-04-24T10:25:33.549Z,9.52
2023-04-24T10:29:37.955Z,9.55
2023-04-24T10:33:42.433Z,9.62
2023-04-24T10:37:50.737Z,9.54
2023-04-24T10:41:53.516Z,9.57
2023-04-24T10:46:04.839Z,9.54
2023-04-24T10:50:10.578Z,9.54
2023-04-24T10:54:25.348Z,9.53
2023-04-24T10:58:39.419Z,9.58
2023-04-24T11:02:49.910Z,9.50
2023-04-24T11:06:54.871Z,9.46
2023-04-24T11:11:00.988Z,9.35
2023-04-24T11:15:04.318Z,9.35
2023-04-24T11:19:10.046Z,9.28
2023-04-24T11:23:14.858Z,9.34
2023-04-24T11:27:20.633Z,9.40
2023-04-24T11:31:43.139Z,9.49
2023-04-24T11:35:47.389Z,9.53
2023-04-24T11:39:53.151Z,9.44
2023-04-24T11:43:58.278Z,9.39
2023-04-24T11:48:01.671Z,9.37
2023-04-24T11:52:07.150Z,9.31
2023-04-24T11:56:11.419Z,9.25
2023-04-24T12:00:19.947Z,9.39
2023-04-24T12:04:23.148Z,9.64
2023-04-24T12:08:32.068Z,9.76
2023-04-24T12:12:34.765Z,9.92
2023-04-24T12:16:37.925Z,9.99
2023-04-24T12:20:42.680Z,10.11
2023-04-24T12:25:03.804Z,10.09
2023-04-24T12:29:06.690Z,10.12
2023-04-24T12:33:09.798Z,10.12
2023-04-24T12:37:13.925Z,10.02
2023-04-24T12:41:20.278Z,9.91
2023-04-24T12:45:26.170Z,9.94
2023-04-24T12:49:32.209Z,9.90
2023-04-24T12:53:35.448Z,9.91
2023-04-24T12:57:41.004Z,9.92
2023-04-24T13:01:44.229Z,9.98
2023-04-24T13:05:47.818Z,10.13
2023-04-24T13:10:06.398Z,10.20
2023-04-24T13:14:11.197Z,10.22
2023-04-24T13:18:26.395Z,10.21
2023-04-24T13:22:53.637Z,10.19
2023-04-24T13:27:24.399Z,10.09
2023-04-24T13:31:29.555Z,10.02
2023-04-24T13:35:32.386Z,10.06
2023-04-24T13:39:36.096Z,10.20
2023-04-24T13:43:38.925Z,10.26
2023-04-24T13:47:42.948Z,10.19
2023-04-24T13:51:46.865Z,10.13
2023-04-24T13:55:49.973Z,10.11
2023-04-24T13:59:52.675Z,10.05
2023-04-24T14:03:57.920Z,9.93
2023-04-24T14:08:01.848Z,9.92
2023-04-24T14:12:04.954Z,10.04
2023-04-24T14:16:10.764Z,10.18
2023-04-24T14:20:15.573Z,10.30
2023-04-24T14:24:18.318Z,10.28
2023-04-24T14:28:21.440Z,10.25
2023-04-24T14:32:27.509Z,10.18
2023-04-24T14:36:32.639Z,10.13
2023-04-24T14:41:04.858Z,9.96
2023-04-24T14:44:58.587Z,9.91
2023-04-24T14:49:01.301Z,9.94
2023-04-24T14:53:06.015Z,10.08
2023-04-24T14:57:09.481Z,10.20
2023-04-24T15:01:12.978Z,10.30
2023-04-24T15:05:16.587Z,10.35
2023-04-24T15:09:23.366Z,10.47
2023-04-24T15:13:27.608Z,10.48
2023-04-24T15:17:30.939Z,10.33
2023-04-24T15:21:33.915Z,10.21
2023-04-24T15:25:38.617Z,10.06
2023-04-24T15:29:42.051Z,10.01
2023-04-24T15:33:45.356Z,9.96
2023-04-24T15:37:48.685Z,9.90
2023-04-24T15:41:54.071Z,9.93
2023-04-24T15:45:57.555Z,10.10
2023-04-24T15:50:00.714Z,10.19
2023-04-24T15:54:04.057Z,10.25
2023-04-24T15:58:08.304Z,10.29
2023-04-24T16:02:18.828Z,10.28
2023-04-24T16:06:22.544Z,10.44
2023-04-24T16:10:26.845Z,10.61
2023-04-24T16:14:31.698Z,10.62
2023-04-24T16:18:35.479Z,10.75
2023-04-24T16:22:39.677Z,10.91
2023-04-24T16:26:43.659Z,10.90
2023-04-24T16:30:47.995Z,10.70
2023-04-24T16:34:50.821Z,10.60
2023-04-24T16:38:54.450Z,10.56
2023-04-24T16:42:58.490Z,10.69
2023-04-24T16:47:03.717Z,10.67
2023-04-24T16:51:07.305Z,10.72
2023-04-24T16:55:11.271Z,10.73
2023-04-24T16:59:14.041Z,10.60
2023-04-24T17:03:27.152Z,10.62
2023-04-24T17:07:31.066Z,10.70
2023-04-24T17:11:48.546Z,10.68
2023-04-24T17:15:51.514Z,10.57
2023-04-24T17:19:55.895Z,10.56
2023-04-24T17:24:02.149Z,10.47
2023-04-24T17:28:24.666Z,10.37
2023-04-24T17:32:38.435Z,10.26
2023-04-24T17:36:57.689Z,10.21
2023-04-24T17:41:16.533Z,10.15
2023-04-24T17:45:32.879Z,10.18
2023-04-24T17:49:48.261Z,10.09
2023-04-24T17:54:04.594Z,10.00
2023-04-24T17:58:20.448Z,9.92
2023-04-24T18:02:24.126Z,9.93
2023-04-24T18:06:30.682Z,9.85
2023-04-24T18:10:44.304Z,9.82
2023-04-24T18:14:53.019Z,9.82
2023-04-24T18:19:13.112Z,9.80
2023-04-24T18:23:25.151Z,9.74
2023-04-24T18:27:33.543Z,9.69
2023-04-24T18:31:42.258Z,9.66
2023-04-24T18:35:58.490Z,9.63
2023-04-24T18:40:15.843Z,9.54
2023-04-24T18:44:42.772Z,9.49
2023-04-24T18:49:01.977Z,9.48
2023-04-24T18:53:18.259Z,9.41
2023-04-24T18:57:28.497Z,9.33
2023-04-24T19:01:35.763Z,9.28
2023-04-24T19:05:39.168Z,9.21
2023-04-24T19:09:43.052Z,9.20
2023-04-24T19:13:54.744Z,9.09
2023-04-24T19:18:00.483Z,9.07
2023-04-24T19:22:07.645Z,9.08
2023-04-24T19:26:13.881Z,9.01
2023-04-24T19:30:17.323Z,8.99
2023-04-24T19:34:22.036Z,8.91
2023-04-24T19:38:26.472Z,8.84
2023-04-24T19:42:43.115Z,8.83
2023-04-24T19:46:47.526Z,8.81
2023-04-24T19:50:52.530Z,8.81
2023-04-24T19:54:55.374Z,8.84
2023-04-24T19:58:59.872Z,8.83
2023-04-24T20:03:04.021Z,8.82
2023-04-24T20:07:12.661Z,8.78
2023-04-24T20:11:38.557Z,8.73
2023-04-24T20:15:41.342Z,8.71
2023-04-24T20:19:45.073Z,8.70
2023-04-24T20:23:51.035Z,8.65
2023-04-24T20:27:54.339Z,8.63
2023-04-24T20:31:57.588Z,8.61
2023-04-24T20:36:01.533Z,8.64
2023-04-24T20:40:08.125Z,8.61
2023-04-24T20:44:11.704Z,8.61
2023-04-24T20:48:15.469Z,8.59
2023-04-24T20:52:18.523Z,8.54
2023-04-24T20:56:24.584Z,8.53
2023-04-24T21:00:27.529Z,8.51
2023-04-24T21:04:32.158Z,8.48
2023-04-24T21:08:36.641Z,8.48
2023-04-24T21:12:41.079Z,8.43
2023-04-24T21:16:43.905Z,8.41
2023-04-24T21:20:46.862Z,8.39
2023-04-24T21:24:51.957Z,8.37
2023-04-24T21:28:58.173Z,8.35
2023-04-24T21:33:01.182Z,8.32
2023-04-24T21:37:04.676Z,8.32
2023-04-24T21:41:07.632Z,8.29
2023-04-24T21:45:12.756Z,8.27
2023-04-24T21:49:16.368Z,8.18
2023-04-24T21:53:19.689Z,8.10
2023-04-24T21:57:22.827Z,8.08
2023-04-24T22:01:27.069Z,7.96
2023-04-24T22:05:30.814Z,7.83
2023-04-24T22:09:34.835Z,7.77
2023-04-24T22:13:37.851Z,7.80
2023-04-24T22:17:41.996Z,7.85
2023-04-24T22:21:44.861Z,7.83
2023-04-24T22:25:47.667Z,7.81
2023-04-24T22:29:50.941Z,7.78
2023-04-24T22:33:55.141Z,7.75
2023-04-24T22:37:59.126Z,7.76
2023-04-24T22:42:02.072Z,7.81
2023-04-24T22:46:05.322Z,7.81
2023-04-24T22:50:10.857Z,7.78
2023-04-24T22:54:13.846Z,7.78
2023-04-24T22:58:16.784Z,7.76
2023-04-24T23:02:19.600Z,7.67
2023-04-24T23:11:58.408Z,7.51
2023-04-24T23:16:01.117Z,7.53
2023-04-24T23:20:05.615Z,7.62
2023-04-24T23:24:08.580Z,7.65
2023-04-24T23:28:12.498Z,7.68
2023-04-24T23:32:15.473Z,7.69
2023-04-24T23:36:18.183Z,7.73
2023-04-24T23:40:51.938Z,7.74
2023-04-24T23:44:55.888Z,7.72
2023-04-24T23:48:58.773Z,7.77
2023-04-24T23:53:01.618Z,7.75
2023-04-24T23:57:04.668Z,7.71
